Time;durP1;ratioP1;P1;durP2;ratioP2;P2;SDS_P1;SDS_P2;PMS_P1;PMS_P2;Temp;Humidity;BMP_temperature;BMP_pressure;BME280_temperature;BME280_humidity;BME280_pressure;Samples;Min_cycle;Max_cycle;Signal;HPM_P1;HPM_P2
2022/11/20 00:00:51;;;;;;;28.15;13.27;;;;;;;;;;5038435;28;20051;-85
2022/11/20 00:03:17;;;;;;;29.50;14.43;;;;;;;;;;5059640;28;20475;-86
2022/11/20 00:05:44;;;;;;;29.63;14.73;;;;;;;;;;5059792;28;20048;-85
2022/11/20 00:08:10;;;;;;;31.83;14.85;;;;;;;;;;5054528;28;20520;-78
2022/11/20 00:10:37;;;;;;;30.50;14.35;;;;;;;;;;5054131;28;20102;-78
2022/11/20 00:13:03;;;;;;;29.35;14.38;;;;;;;;;;5053733;28;20041;-78
2022/11/20 00:15:29;;;;;;;30.38;14.52;;;;;;;;;;5053746;28;20041;-78
2022/11/20 00:17:55;;;;;;;28.60;14.45;;;;;;;;;;5037092;28;20548;-78
2022/11/20 00:20:21;;;;;;;25.73;13.32;;;;;;;;;;5053674;28;20077;-78
2022/11/20 00:22:47;;;;;;;31.48;14.38;;;;;;;;;;5036895;28;20041;-78
2022/11/20 00:25:13;;;;;;;30.73;14.88;;;;;;;;;;5053715;28;20037;-78
2022/11/20 00:27:40;;;;;;;33.78;15.35;;;;;;;;;;5053494;28;20049;-78
2022/11/20 00:30:06;;;;;;;38.58;15.50;;;;;;;;;;5054916;28;20044;-78
2022/11/20 00:32:32;;;;;;;31.77;13.65;;;;;;;;;;5053636;28;20052;-78
2022/11/20 00:34:58;;;;;;;34.00;13.57;;;;;;;;;;5054344;28;20033;-78
2022/11/20 00:37:24;;;;;;;32.13;13.35;;;;;;;;;;5054774;28;20084;-77
2022/11/20 00:39:50;;;;;;;27.30;12.85;;;;;;;;;;5052882;28;20036;-78
2022/11/20 00:42:16;;;;;;;32.05;13.65;;;;;;;;;;5037343;28;20041;-85
2022/11/20 00:44:42;;;;;;;28.90;12.85;;;;;;;;;;5053700;28;20045;-85
2022/11/20 00:47:08;;;;;;;30.45;14.10;;;;;;;;;;5053339;28;20454;-85
2022/11/20 00:49:35;;;;;;;29.83;15.07;;;;;;;;;;5053442;28;20053;-85
2022/11/20 00:52:01;;;;;;;24.35;12.35;;;;;;;;;;5053110;28;20041;-84
2022/11/20 00:54:27;;;;;;;28.33;13.02;;;;;;;;;;5037261;28;20557;-85
2022/11/20 00:56:53;;;;;;;23.83;12.40;;;;;;;;;;5053361;28;20054;-85
2022/11/20 00:59:19;;;;;;;24.45;12.85;;;;;;;;;;5086945;28;20126;-85
2022/11/20 01:01:45;;;;;;;25.88;13.13;;;;;;;;;;5054665;28;20047;-85
2022/11/20 01:04:12;;;;;;;26.63;13.00;;;;;;;;;;5022859;28;20045;-85
2022/11/20 01:06:38;;;;;;;27.77;13.07;;;;;;;;;;5036565;28;20041;-85
2022/11/20 01:09:06;;;;;;;29.15;13.50;;;;;;;;;;5057119;28;20036;-85
2022/11/20 01:11:34;;;;;;;26.02;13.32;;;;;;;;;;5062263;28;20119;-85
2022/11/20 01:14:01;;;;;;;30.10;14.02;;;;;;;;;;5053341;28;20406;-85
2022/11/20 01:16:29;;;;;;;26.08;12.93;;;;;;;;;;5037160;28;20041;-85
2022/11/20 01:18:57;;;;;;;24.77;12.27;;;;;;;;;;5054161;28;20048;-85
2022/11/20 01:21:25;;;;;;;27.98;12.95;;;;;;;;;;5052089;28;20041;-85
2022/11/20 01:23:52;;;;;;;28.98;13.50;;;;;;;;;;5056861;28;20098;-85
2022/11/20 01:26:19;;;;;;;31.42;14.38;;;;;;;;;;5057771;28;20079;-78
2022/11/20 01:28:45;;;;;;;29.30;13.85;;;;;;;;;;5052814;28;20464;-78
2022/11/20 01:31:16;;;;;;;28.30;13.68;;;;;;;;;;5051954;28;20068;-78
2022/11/20 01:33:43;;;;;;;30.38;14.25;;;;;;;;;;5052644;28;20052;-85
2022/11/20 01:36:09;;;;;;;26.40;12.77;;;;;;;;;;5036032;28;20555;-85
2022/11/20 01:38:35;;;;;;;29.02;14.27;;;;;;;;;;5052372;28;20159;-77
2022/11/20 01:41:01;;;;;;;32.17;14.05;;;;;;;;;;5052188;28;20512;-78
2022/11/20 01:43:28;;;;;;;31.02;14.77;;;;;;;;;;5052466;28;20041;-78
2022/11/20 01:46:00;;;;;;;29.85;13.52;;;;;;;;;;5052478;28;20045;-77
2022/11/20 01:48:32;;;;;;;26.23;13.50;;;;;;;;;;5052534;28;20540;-77
2022/11/20 01:50:58;;;;;;;26.30;13.98;;;;;;;;;;5053170;28;20041;-78
2022/11/20 01:53:27;;;;;;;25.77;13.63;;;;;;;;;;5038447;28;20048;-85
2022/11/20 01:55:54;;;;;;;29.95;14.38;;;;;;;;;;5052324;28;20421;-77
2022/11/20 01:58:22;;;;;;;26.17;13.77;;;;;;;;;;5051634;28;20040;-77
2022/11/20 02:00:49;;;;;;;27.33;13.23;;;;;;;;;;5051985;28;20045;-78
2022/11/20 02:03:18;;;;;;;27.25;12.90;;;;;;;;;;5051526;28;20083;-85
2022/11/20 02:05:56;;;;;;;28.73;14.27;;;;;;;;;;5053609;28;20397;-85
2022/11/20 02:08:22;;;;;;;26.55;12.70;;;;;;;;;;5032516;28;20040;-86
2022/11/20 02:10:48;;;;;;;25.15;12.35;;;;;;;;;;5040837;28;20095;-77
2022/11/20 02:16:00;;;;;;;27.63;13.80;;;;;;;;;;5051618;28;20044;-78
2022/11/20 02:18:26;;;;;;;27.85;13.25;;;;;;;;;;5051702;28;20045;-78
2022/11/20 02:20:57;;;;;;;24.17;12.15;;;;;;;;;;5052702;28;20044;-78
2022/11/20 02:23:37;;;;;;;24.13;12.63;;;;;;;;;;5050253;28;20041;-78
2022/11/20 02:26:04;;;;;;;24.08;12.98;;;;;;;;;;5051005;28;20057;-77
2022/11/20 02:28:31;;;;;;;27.15;13.88;;;;;;;;;;5051373;28;20053;-78
2022/11/20 02:30:57;;;;;;;27.27;12.07;;;;;;;;;;5051298;28;20041;-78
2022/11/20 02:33:23;;;;;;;22.90;12.15;;;;;;;;;;5051379;28;20497;-77
2022/11/20 02:35:49;;;;;;;23.98;12.88;;;;;;;;;;5051561;28;20440;-77
2022/11/20 02:38:15;;;;;;;23.42;12.07;;;;;;;;;;5034421;28;20072;-77
2022/11/20 02:40:42;;;;;;;23.02;12.13;;;;;;;;;;5034653;28;20041;-77
2022/11/20 02:43:08;;;;;;;26.38;11.65;;;;;;;;;;5050904;28;20124;-77
2022/11/20 02:45:34;;;;;;;22.88;12.02;;;;;;;;;;5051351;28;20135;-78
2022/11/20 02:48:00;;;;;;;20.73;10.90;;;;;;;;;;5037508;28;20055;-86
2022/11/20 02:50:26;;;;;;;25.23;12.27;;;;;;;;;;5035034;28;20036;-85
2022/11/20 02:52:52;;;;;;;23.05;11.35;;;;;;;;;;5047575;28;20445;-86
2022/11/20 02:55:19;;;;;;;25.05;13.02;;;;;;;;;;5024720;28;20037;-77
2022/11/20 02:57:45;;;;;;;25.70;13.55;;;;;;;;;;5018347;28;20512;-77
2022/11/20 03:00:11;;;;;;;24.73;12.77;;;;;;;;;;5034427;28;20033;-77
2022/11/20 03:02:37;;;;;;;21.08;11.32;;;;;;;;;;5036829;28;20053;-77
2022/11/20 03:05:03;;;;;;;26.92;13.18;;;;;;;;;;5050057;28;20048;-77
2022/11/20 03:07:30;;;;;;;25.92;12.93;;;;;;;;;;5049708;28;20037;-77
2022/11/20 03:09:56;;;;;;;27.67;13.02;;;;;;;;;;5052583;28;20083;-77
2022/11/20 03:12:22;;;;;;;25.73;12.82;;;;;;;;;;5034043;28;20036;-77
2022/11/20 03:14:48;;;;;;;25.70;12.88;;;;;;;;;;5051208;28;20045;-77
2022/11/20 03:17:14;;;;;;;25.13;12.45;;;;;;;;;;5034466;28;20516;-77
2022/11/20 03:19:40;;;;;;;23.13;12.02;;;;;;;;;;5050935;28;20076;-77
2022/11/20 03:22:06;;;;;;;23.45;11.80;;;;;;;;;;5050768;28;20094;-77
2022/11/20 03:24:32;;;;;;;26.88;13.30;;;;;;;;;;5051814;28;20045;-86
2022/11/20 03:26:58;;;;;;;24.00;12.65;;;;;;;;;;5050870;28;20098;-86
2022/11/20 03:29:24;;;;;;;27.17;13.10;;;;;;;;;;5050765;28;20056;-85
2022/11/20 03:31:50;;;;;;;24.75;13.52;;;;;;;;;;5050950;28;20037;-85
2022/11/20 03:34:16;;;;;;;24.55;12.55;;;;;;;;;;5034788;28;20553;-85
2022/11/20 03:36:43;;;;;;;25.52;12.75;;;;;;;;;;5055010;28;20045;-85
2022/11/20 03:39:09;;;;;;;24.52;13.05;;;;;;;;;;5054819;28;20450;-86
2022/11/20 03:41:40;;;;;;;25.80;13.40;;;;;;;;;;5054408;28;20132;-85
2022/11/20 03:44:07;;;;;;;24.48;12.88;;;;;;;;;;5054424;28;20049;-86
2022/11/20 03:46:33;;;;;;;23.52;11.98;;;;;;;;;;5037794;28;20498;-85
2022/11/20 03:48:59;;;;;;;29.52;13.60;;;;;;;;;;5053826;28;20052;-86
2022/11/20 03:51:30;;;;;;;27.92;12.95;;;;;;;;;;5054242;28;20082;-76
2022/11/20 03:53:57;;;;;;;22.13;12.02;;;;;;;;;;5054416;28;20047;-77
2022/11/20 03:56:24;;;;;;;26.67;13.27;;;;;;;;;;5037002;28;20036;-77
2022/11/20 03:58:50;;;;;;;22.85;11.82;;;;;;;;;;5054484;28;20159;-77
2022/11/20 04:01:18;;;;;;;24.90;12.27;;;;;;;;;;5053677;28;20037;-77
2022/11/20 04:03:45;;;;;;;26.08;12.98;;;;;;;;;;5054216;28;20538;-77
2022/11/20 04:06:12;;;;;;;25.50;12.57;;;;;;;;;;5054676;28;20083;-77
2022/11/20 04:08:38;;;;;;;26.17;13.35;;;;;;;;;;5045820;28;20120;-85
2022/11/20 04:11:21;;;;;;;27.48;13.57;;;;;;;;;;5031352;28;20041;-86
2022/11/20 04:13:48;;;;;;;28.23;13.43;;;;;;;;;;5042175;28;20075;-77
2022/11/20 04:16:14;;;;;;;23.90;12.38;;;;;;;;;;5054414;28;20041;-77
2022/11/20 04:18:40;;;;;;;24.90;13.45;;;;;;;;;;5037602;28;20087;-86
2022/11/20 04:21:07;;;;;;;25.98;12.98;;;;;;;;;;5053823;28;20079;-85
2022/11/20 04:23:33;;;;;;;26.48;12.90;;;;;;;;;;5053492;28;20045;-86
2022/11/20 04:26:06;;;;;;;25.92;12.73;;;;;;;;;;5054695;28;20060;-85
2022/11/20 04:28:32;;;;;;;26.38;12.38;;;;;;;;;;5067273;28;20512;-77
2022/11/20 04:31:02;;;;;;;22.35;11.80;;;;;;;;;;5054875;28;20481;-77
2022/11/20 04:33:28;;;;;;;24.42;12.77;;;;;;;;;;5036952;28;20048;-77
2022/11/20 04:35:54;;;;;;;24.98;12.50;;;;;;;;;;5053674;28;20477;-77
2022/11/20 04:38:20;;;;;;;25.08;12.65;;;;;;;;;;5053031;28;20041;-77
2022/11/20 04:40:47;;;;;;;24.48;12.10;;;;;;;;;;5036697;28;20056;-77
2022/11/20 04:43:13;;;;;;;24.00;12.40;;;;;;;;;;5053346;28;20481;-77
2022/11/20 04:45:39;;;;;;;25.55;12.95;;;;;;;;;;5036445;28;20482;-85
2022/11/20 04:48:05;;;;;;;23.33;12.88;;;;;;;;;;5052891;28;20036;-85
2022/11/20 04:50:31;;;;;;;26.05;12.85;;;;;;;;;;5036757;28;20388;-85
2022/11/20 04:52:57;;;;;;;25.98;12.57;;;;;;;;;;5053508;28;20064;-85
2022/11/20 04:55:23;;;;;;;25.27;12.82;;;;;;;;;;5053018;28;20045;-85
2022/11/20 04:57:52;;;;;;;23.23;11.75;;;;;;;;;;5053143;28;20057;-85
2022/11/20 05:00:18;;;;;;;23.35;12.20;;;;;;;;;;5036363;28;20041;-85
2022/11/20 05:02:44;;;;;;;29.58;12.65;;;;;;;;;;5020815;28;20048;-85
2022/11/20 05:05:10;;;;;;;25.98;12.85;;;;;;;;;;5053619;28;20489;-85
2022/11/20 05:07:36;;;;;;;24.60;11.77;;;;;;;;;;5053593;28;20037;-85
2022/11/20 05:10:02;;;;;;;24.27;12.50;;;;;;;;;;5053099;28;20033;-84
2022/11/20 05:12:29;;;;;;;24.85;12.00;;;;;;;;;;5053817;28;20428;-85
2022/11/20 05:14:55;;;;;;;26.95;12.80;;;;;;;;;;5049166;28;20486;-85
2022/11/20 05:17:21;;;;;;;22.88;12.32;;;;;;;;;;5054444;28;20114;-85
2022/11/20 05:19:47;;;;;;;24.50;12.52;;;;;;;;;;5037998;28;20051;-77
2022/11/20 05:22:13;;;;;;;26.27;13.80;;;;;;;;;;5072463;28;20090;-77
2022/11/20 05:24:39;;;;;;;26.85;12.50;;;;;;;;;;5072028;28;20048;-77
2022/11/20 05:27:05;;;;;;;29.80;13.13;;;;;;;;;;5071932;28;20049;-77
2022/11/20 05:29:31;;;;;;;26.52;13.27;;;;;;;;;;5059433;28;20048;-76
2022/11/20 05:31:57;;;;;;;25.23;12.90;;;;;;;;;;5052580;28;20041;-76
2022/11/20 05:34:23;;;;;;;24.73;12.50;;;;;;;;;;5053461;28;20037;-76
2022/11/20 05:36:49;;;;;;;27.58;13.85;;;;;;;;;;5052545;28;20410;-76
2022/11/20 05:39:15;;;;;;;26.75;13.43;;;;;;;;;;5052479;28;20397;-85
2022/11/20 05:41:41;;;;;;;29.30;13.27;;;;;;;;;;5052075;28;20044;-85
2022/11/20 05:44:08;;;;;;;28.05;13.20;;;;;;;;;;5051796;28;20045;-76
2022/11/20 05:46:34;;;;;;;28.15;12.45;;;;;;;;;;5035505;28;20037;-76
2022/11/20 05:49:00;;;;;;;24.08;12.65;;;;;;;;;;5036336;28;20067;-76
2022/11/20 05:51:26;;;;;;;25.75;12.93;;;;;;;;;;5035474;28;20059;-77
2022/11/20 05:53:52;;;;;;;24.77;12.40;;;;;;;;;;5051961;28;20041;-77
2022/11/20 05:56:19;;;;;;;27.05;13.07;;;;;;;;;;5053110;28;20078;-76
2022/11/20 05:58:46;;;;;;;26.30;12.57;;;;;;;;;;5042279;28;20041;-76
2022/11/20 06:01:20;;;;;;;25.67;13.05;;;;;;;;;;5048412;28;20087;-76
2022/11/20 06:03:47;;;;;;;22.08;11.50;;;;;;;;;;5052571;28;20049;-76
2022/11/20 06:06:14;;;;;;;27.58;11.88;;;;;;;;;;5052857;28;20089;-76
2022/11/20 06:08:40;;;;;;;27.08;12.48;;;;;;;;;;5035299;28;20033;-76
2022/11/20 06:11:07;;;;;;;23.85;11.82;;;;;;;;;;5051722;28;20458;-76
2022/11/20 06:13:34;;;;;;;24.80;12.18;;;;;;;;;;5051144;28;20041;-76
2022/11/20 06:16:00;;;;;;;26.33;12.20;;;;;;;;;;5052831;28;20143;-76
2022/11/20 06:18:30;;;;;;;24.80;12.18;;;;;;;;;;5052793;28;20041;-76
2022/11/20 06:21:00;;;;;;;22.50;11.75;;;;;;;;;;5068457;28;20116;-76
2022/11/20 06:23:26;;;;;;;26.02;12.13;;;;;;;;;;5051264;28;20041;-76
2022/11/20 06:25:52;;;;;;;25.42;11.82;;;;;;;;;;5034274;28;20093;-76
2022/11/20 06:28:18;;;;;;;21.35;11.60;;;;;;;;;;5051106;28;20094;-85
2022/11/20 06:30:47;;;;;;;25.67;12.38;;;;;;;;;;5051239;28;20044;-85
2022/11/20 06:33:13;;;;;;;23.55;12.00;;;;;;;;;;5035017;28;20080;-85
2022/11/20 06:35:39;;;;;;;25.45;12.70;;;;;;;;;;5052759;28;20043;-85
2022/11/20 06:38:05;;;;;;;22.70;11.15;;;;;;;;;;5051511;28;20037;-85
2022/11/20 06:40:31;;;;;;;26.30;11.98;;;;;;;;;;5051794;28;20122;-84
2022/11/20 06:42:58;;;;;;;28.00;12.43;;;;;;;;;;5034717;28;20494;-77
2022/11/20 06:45:24;;;;;;;26.67;12.40;;;;;;;;;;5052491;28;20375;-77
2022/11/20 06:47:50;;;;;;;27.95;12.32;;;;;;;;;;5053199;28;20040;-86
2022/11/20 06:50:16;;;;;;;26.02;13.00;;;;;;;;;;5035556;28;20048;-86
2022/11/20 06:52:42;;;;;;;26.35;12.48;;;;;;;;;;5035122;28;20037;-86
2022/11/20 06:55:08;;;;;;;26.38;12.80;;;;;;;;;;5034668;28;20033;-77
2022/11/20 06:57:34;;;;;;;26.85;13.50;;;;;;;;;;5051360;28;20559;-86
2022/11/20 07:00:00;;;;;;;23.05;12.50;;;;;;;;;;5050930;28;20037;-86
2022/11/20 07:02:26;;;;;;;25.83;13.05;;;;;;;;;;5034508;28;20086;-86
2022/11/20 07:04:52;;;;;;;23.85;12.23;;;;;;;;;;5050696;28;20045;-86
2022/11/20 07:07:18;;;;;;;25.38;12.10;;;;;;;;;;5051250;28;20045;-86
2022/11/20 07:09:44;;;;;;;27.63;13.07;;;;;;;;;;5072467;28;20485;-86
2022/11/20 07:12:10;;;;;;;24.10;12.30;;;;;;;;;;5078153;28;20382;-86
2022/11/20 07:14:36;;;;;;;24.00;11.63;;;;;;;;;;5111258;28;20044;-86
2022/11/20 07:17:02;;;;;;;25.63;12.20;;;;;;;;;;5077840;28;20044;-84
2022/11/20 07:19:29;;;;;;;23.40;12.07;;;;;;;;;;5075317;28;20067;-84
2022/11/20 07:21:55;;;;;;;26.90;13.05;;;;;;;;;;5078855;28;20121;-83
2022/11/20 07:24:21;;;;;;;25.63;12.32;;;;;;;;;;5077678;28;20382;-83
2022/11/20 07:26:48;;;;;;;32.95;19.17;;;;;;;;;;5076880;28;20444;-75
2022/11/20 07:29:15;;;;;;;26.80;14.23;;;;;;;;;;5071838;28;20379;-75
2022/11/20 07:31:41;;;;;;;30.20;16.30;;;;;;;;;;5057408;28;20041;-75
2022/11/20 07:34:07;;;;;;;28.10;15.38;;;;;;;;;;5060634;28;20098;-84
2022/11/20 07:36:33;;;;;;;25.70;13.82;;;;;;;;;;5063366;28;20043;-84
2022/11/20 07:38:59;;;;;;;30.85;17.83;;;;;;;;;;5076844;28;20049;-83
2022/11/20 07:41:25;;;;;;;27.55;13.60;;;;;;;;;;5077425;28;20121;-84
2022/11/20 07:43:51;;;;;;;29.63;16.15;;;;;;;;;;5060994;28;20045;-84
2022/11/20 07:46:17;;;;;;;28.30;15.93;;;;;;;;;;5077861;28;20470;-84
2022/11/20 07:48:43;;;;;;;29.40;14.95;;;;;;;;;;5077810;28;20036;-84
2022/11/20 07:51:09;;;;;;;32.10;16.92;;;;;;;;;;5073404;28;20033;-84
2022/11/20 07:53:35;;;;;;;28.05;14.77;;;;;;;;;;5068997;28;20040;-84
2022/11/20 07:56:02;;;;;;;28.50;14.85;;;;;;;;;;5077024;28;20090;-84
2022/11/20 07:58:34;;;;;;;28.00;15.25;;;;;;;;;;5051693;28;20133;-84
2022/11/20 08:01:04;;;;;;;29.60;14.10;;;;;;;;;;5058994;28;20481;-84
2022/11/20 08:03:30;;;;;;;31.27;15.27;;;;;;;;;;5069973;28;20076;-84
2022/11/20 08:06:00;;;;;;;32.60;16.05;;;;;;;;;;5073438;28;20439;-84
2022/11/20 08:08:26;;;;;;;36.72;16.52;;;;;;;;;;5067335;28;20048;-84
2022/11/20 08:10:52;;;;;;;43.90;20.42;;;;;;;;;;5079211;28;20036;-84
2022/11/20 08:16:03;;;;;;;29.00;14.73;;;;;;;;;;5077020;28;20049;-85
2022/11/20 08:18:30;;;;;;;27.70;13.98;;;;;;;;;;5077339;28;20064;-85
2022/11/20 08:20:56;;;;;;;29.67;14.02;;;;;;;;;;5074949;28;20046;-85
2022/11/20 08:23:23;;;;;;;25.15;13.68;;;;;;;;;;5069712;28;20375;-85
2022/11/20 08:25:50;;;;;;;24.92;13.70;;;;;;;;;;5037556;28;20033;-84
2022/11/20 08:28:40;;;;;;;27.20;14.82;;;;;;;;;;5074521;28;20045;-86
2022/11/20 08:31:09;;;;;;;23.95;13.65;;;;;;;;;;5050390;28;20072;-87
2022/11/20 08:33:38;;;;;;;23.20;13.48;;;;;;;;;;5047494;28;20037;-85
2022/11/20 08:36:06;;;;;;;23.55;12.98;;;;;;;;;;5064063;28;20033;-86
2022/11/20 08:38:32;;;;;;;21.80;13.70;;;;;;;;;;5061695;28;20044;-85
2022/11/20 08:43:43;;;;;;;21.20;12.00;;;;;;;;;;5053918;28;20468;-83
2022/11/20 08:46:09;;;;;;;18.35;11.52;;;;;;;;;;5049263;28;20048;-83
2022/11/20 08:48:36;;;;;;;18.90;11.57;;;;;;;;;;5052044;28;20393;-84
2022/11/20 08:51:02;;;;;;;18.35;11.70;;;;;;;;;;5049902;28;20036;-84
2022/11/20 08:53:28;;;;;;;14.48;10.25;;;;;;;;;;5059473;28;20493;-84
2022/11/20 08:55:54;;;;;;;15.32;10.27;;;;;;;;;;5045147;28;20045;-78
2022/11/20 08:58:20;;;;;;;14.85;10.30;;;;;;;;;;5071964;28;20127;-85
2022/11/20 09:00:49;;;;;;;17.15;10.50;;;;;;;;;;5076948;28;20040;-79
2022/11/20 09:03:16;;;;;;;15.32;10.85;;;;;;;;;;5077156;28;20036;-79
2022/11/20 09:05:42;;;;;;;15.05;10.50;;;;;;;;;;5079263;28;20101;-79
2022/11/20 09:08:09;;;;;;;15.77;10.45;;;;;;;;;;5059563;28;20040;-79
2022/11/20 09:10:36;;;;;;;14.65;10.27;;;;;;;;;;5046380;28;20087;-78
2022/11/20 09:13:03;;;;;;;14.07;10.27;;;;;;;;;;5080713;28;20040;-77
2022/11/20 09:15:29;;;;;;;14.60;9.77;;;;;;;;;;5080363;28;20091;-78
2022/11/20 09:17:56;;;;;;;15.55;10.68;;;;;;;;;;5066572;28;20041;-78
2022/11/20 09:20:22;;;;;;;15.65;10.30;;;;;;;;;;5072199;28;20044;-78
2022/11/20 09:22:49;;;;;;;14.20;10.73;;;;;;;;;;5062819;28;20050;-77
2022/11/20 09:25:15;;;;;;;14.45;9.85;;;;;;;;;;5055862;28;20115;-78
2022/11/20 09:27:47;;;;;;;15.45;10.90;;;;;;;;;;5041851;28;20048;-77
2022/11/20 09:30:14;;;;;;;14.57;10.63;;;;;;;;;;5057317;28;20045;-76
2022/11/20 09:32:40;;;;;;;14.57;10.38;;;;;;;;;;5055570;28;20044;-76
2022/11/20 09:35:06;;;;;;;13.80;10.10;;;;;;;;;;5070247;28;20040;-77
2022/11/20 09:37:32;;;;;;;16.00;10.43;;;;;;;;;;5060843;28;20036;-77
2022/11/20 09:39:58;;;;;;;13.55;9.50;;;;;;;;;;5056240;28;20115;-79
2022/11/20 09:42:33;;;;;;;13.30;10.23;;;;;;;;;;5072707;28;20039;-79
2022/11/20 09:45:06;;;;;;;13.10;10.07;;;;;;;;;;5072456;28;20394;-81
2022/11/20 09:47:32;;;;;;;14.55;10.35;;;;;;;;;;5072653;28;20057;-80
2022/11/20 09:50:07;;;;;;;13.45;9.93;;;;;;;;;;5072716;28;20044;-79
2022/11/20 09:52:39;;;;;;;14.02;10.00;;;;;;;;;;5072908;28;20047;-79
2022/11/20 09:55:09;;;;;;;12.32;9.40;;;;;;;;;;5073853;28;20047;-79
2022/11/20 09:57:41;;;;;;;13.07;9.57;;;;;;;;;;5072731;28;20044;-80
2022/11/20 10:00:11;;;;;;;13.52;10.25;;;;;;;;;;5059572;28;20424;-79
2022/11/20 10:02:41;;;;;;;13.65;9.80;;;;;;;;;;5035560;28;20047;-78
2022/11/20 10:05:07;;;;;;;12.40;9.73;;;;;;;;;;5064909;28;20481;-80
2022/11/20 10:07:43;;;;;;;13.68;9.88;;;;;;;;;;5072458;28;20044;-79
2022/11/20 10:10:17;;;;;;;12.18;9.60;;;;;;;;;;5059742;28;20051;-79
2022/11/20 10:12:55;;;;;;;13.35;10.38;;;;;;;;;;5057088;28;20067;-79
2022/11/20 10:15:25;;;;;;;11.70;9.80;;;;;;;;;;5055312;28;20420;-80
2022/11/20 10:18:03;;;;;;;13.07;11.18;;;;;;;;;;5050440;28;20123;-78
2022/11/20 10:20:58;;;;;;;12.63;9.30;;;;;;;;;;5064939;28;20474;-78
2022/11/20 10:23:34;;;;;;;11.98;9.18;;;;;;;;;;5070935;28;20098;-80
2022/11/20 10:26:03;;;;;;;12.23;9.02;;;;;;;;;;5071665;28;20471;-80
2022/11/20 10:28:35;;;;;;;12.07;9.52;;;;;;;;;;5071605;28;20129;-80
2022/11/20 10:31:03;;;;;;;10.90;8.23;;;;;;;;;;5071317;28;20393;-78
2022/11/20 10:33:32;;;;;;;10.93;8.45;;;;;;;;;;5035336;28;20052;-78
2022/11/20 10:36:01;;;;;;;13.13;9.73;;;;;;;;;;5051368;28;20040;-78
2022/11/20 10:38:49;;;;;;;11.73;9.45;;;;;;;;;;5051700;28;20045;-77
2022/11/20 10:41:25;;;;;;;11.38;8.50;;;;;;;;;;5051351;28;20044;-77
2022/11/20 10:43:54;;;;;;;13.32;9.18;;;;;;;;;;5034339;28;20051;-79
2022/11/20 10:46:22;;;;;;;13.63;9.52;;;;;;;;;;5020733;28;20046;-79
2022/11/20 10:48:49;;;;;;;12.65;9.18;;;;;;;;;;5051276;28;20041;-78
2022/11/20 10:51:18;;;;;;;14.35;9.68;;;;;;;;;;5051239;28;20482;-78
2022/11/20 10:53:54;;;;;;;13.00;9.43;;;;;;;;;;5051274;28;20081;-79
2022/11/20 10:56:24;;;;;;;12.82;9.10;;;;;;;;;;5050959;28;20048;-78
2022/11/20 10:59:14;;;;;;;12.82;8.80;;;;;;;;;;5034766;28;20048;-78
2022/11/20 11:01:41;;;;;;;13.40;9.18;;;;;;;;;;5051274;28;20049;-78
2022/11/20 11:04:19;;;;;;;13.82;9.38;;;;;;;;;;5050744;28;20518;-78
2022/11/20 11:06:48;;;;;;;13.63;9.05;;;;;;;;;;5037794;28;20451;-77
2022/11/20 11:09:20;;;;;;;14.45;9.57;;;;;;;;;;5052315;28;20046;-77
2022/11/20 11:11:46;;;;;;;14.13;8.88;;;;;;;;;;5052679;28;20478;-77
2022/11/20 11:14:14;;;;;;;13.35;8.85;;;;;;;;;;5053225;28;20132;-77
2022/11/20 11:16:53;;;;;;;14.93;9.35;;;;;;;;;;5023057;28;20151;-78
2022/11/20 11:19:19;;;;;;;17.60;9.32;;;;;;;;;;5053635;28;20041;-77
2022/11/20 11:21:49;;;;;;;14.80;9.40;;;;;;;;;;5055913;28;20032;-77
2022/11/20 11:24:26;;;;;;;14.70;9.18;;;;;;;;;;5052661;28;20045;-77
2022/11/20 11:27:04;;;;;;;14.77;9.65;;;;;;;;;;5034999;28;20498;-77
2022/11/20 11:29:31;;;;;;;15.13;9.10;;;;;;;;;;5051485;28;20079;-77
2022/11/20 11:32:13;;;;;;;15.93;9.38;;;;;;;;;;5065460;28;20127;-77
2022/11/20 11:34:39;;;;;;;14.45;9.20;;;;;;;;;;5039454;28;20063;-77
2022/11/20 11:37:10;;;;;;;20.88;13.50;;;;;;;;;;5051123;28;20048;-77
2022/11/20 11:39:36;;;;;;;17.45;10.02;;;;;;;;;;5051131;28;20052;-77
2022/11/20 11:42:02;;;;;;;16.85;9.45;;;;;;;;;;5061319;28;20516;-77
2022/11/20 11:47:23;;;;;;;14.63;9.05;;;;;;;;;;5063910;28;20041;-77
2022/11/20 11:49:49;;;;;;;13.50;8.50;;;;;;;;;;5032270;28;20042;-77
2022/11/20 11:52:21;;;;;;;15.60;9.45;;;;;;;;;;5045702;28;20063;-77
2022/11/20 11:54:50;;;;;;;15.02;9.73;;;;;;;;;;5034339;28;20052;-77
2022/11/20 11:57:36;;;;;;;14.75;8.90;;;;;;;;;;5055156;28;20041;-77
2022/11/20 12:00:19;;;;;;;14.07;8.43;;;;;;;;;;5029792;28;20053;-77
2022/11/20 12:02:45;;;;;;;15.63;8.18;;;;;;;;;;5063551;28;20051;-87
2022/11/20 12:05:26;;;;;;;13.95;8.30;;;;;;;;;;5071828;28;20052;-77
2022/11/20 12:07:52;;;;;;;16.35;8.88;;;;;;;;;;5074667;28;20548;-87
2022/11/20 12:10:41;;;;;;;15.90;9.05;;;;;;;;;;5057414;28;20393;-87
2022/11/20 12:13:22;;;;;;;12.82;7.70;;;;;;;;;;5046696;28;20053;-77
2022/11/20 12:15:49;;;;;;;15.43;9.57;;;;;;;;;;5048424;28;20113;-86
2022/11/20 12:18:16;;;;;;;14.40;8.73;;;;;;;;;;5076037;28;20047;-86
2022/11/20 12:20:46;;;;;;;14.63;9.60;;;;;;;;;;5071233;28;20044;-87
2022/11/20 12:23:22;;;;;;;13.75;8.55;;;;;;;;;;5054611;28;20410;-86
2022/11/20 12:25:52;;;;;;;13.43;8.13;;;;;;;;;;5072779;28;20067;-77
2022/11/20 12:28:36;;;;;;;16.95;9.68;;;;;;;;;;5063814;28;20069;-77
2022/11/20 12:31:02;;;;;;;14.05;8.40;;;;;;;;;;5040436;28;20037;-77
2022/11/20 12:33:41;;;;;;;13.90;8.55;;;;;;;;;;5054440;28;20100;-86
2022/11/20 12:36:10;;;;;;;15.05;8.40;;;;;;;;;;5055393;28;20045;-86
2022/11/20 12:38:36;;;;;;;13.95;8.43;;;;;;;;;;5075119;28;20081;-86
2022/11/20 12:47:16;;;;;;;29.17;13.32;;;;;;;;;;5054253;28;20069;-86
2022/11/20 12:49:43;;;;;;;27.40;12.55;;;;;;;;;;5053736;28;20091;-86
2022/11/20 12:52:18;;;;;;;25.80;13.32;;;;;;;;;;5053857;28;20036;-86
2022/11/20 12:54:56;;;;;;;17.00;8.32;;;;;;;;;;5054956;28;20124;-77
2022/11/20 12:57:22;;;;;;;15.82;8.38;;;;;;;;;;5036603;28;20045;-77
2022/11/20 13:00:04;;;;;;;14.30;8.07;;;;;;;;;;5053726;28;20039;-77
2022/11/20 13:02:59;;;;;;;16.10;8.95;;;;;;;;;;5036896;28;20888;-77
2022/11/20 13:05:32;;;;;;;16.55;9.32;;;;;;;;;;5034249;28;20057;-77
2022/11/20 13:07:58;;;;;;;15.85;9.25;;;;;;;;;;5052445;28;20116;-78
2022/11/20 13:10:27;;;;;;;19.83;8.88;;;;;;;;;;5053170;28;20049;-77
2022/11/20 13:13:12;;;;;;;15.73;8.35;;;;;;;;;;5036971;28;20405;-78
2022/11/20 13:15:45;;;;;;;14.25;8.70;;;;;;;;;;5053214;28;20128;-87
2022/11/20 13:18:11;;;;;;;18.45;9.48;;;;;;;;;;5053319;28;20048;-86
2022/11/20 13:20:42;;;;;;;15.68;8.60;;;;;;;;;;5053981;28;20040;-86
2022/11/20 13:23:08;;;;;;;14.48;7.50;;;;;;;;;;5053237;28;21924;-85
2022/11/20 13:25:35;;;;;;;15.68;8.50;;;;;;;;;;5053836;28;20405;-86
2022/11/20 13:28:04;;;;;;;17.40;8.65;;;;;;;;;;5053107;28;20052;-86
2022/11/20 13:30:31;;;;;;;16.23;9.07;;;;;;;;;;5053550;28;20525;-86
2022/11/20 13:33:00;;;;;;;15.05;8.95;;;;;;;;;;5053760;28;20079;-86
2022/11/20 13:35:37;;;;;;;15.45;8.02;;;;;;;;;;5065611;28;20124;-85
2022/11/20 13:38:08;;;;;;;15.73;8.57;;;;;;;;;;5038967;28;20033;-86
2022/11/20 13:40:36;;;;;;;14.50;8.70;;;;;;;;;;5054511;28;20120;-84
2022/11/20 13:43:11;;;;;;;16.15;9.05;;;;;;;;;;5067335;28;20037;-87
2022/11/20 13:45:37;;;;;;;13.30;7.45;;;;;;;;;;5054320;28;20041;-86
2022/11/20 13:48:05;;;;;;;18.67;9.65;;;;;;;;;;5054584;28;20045;-87
2022/11/20 13:50:37;;;;;;;15.98;9.32;;;;;;;;;;5066226;28;20136;-87
2022/11/20 13:53:27;;;;;;;16.27;9.10;;;;;;;;;;5054514;28;20040;-87
2022/11/20 13:56:15;;;;;;;15.55;9.52;;;;;;;;;;5062402;28;20083;-87
2022/11/20 13:58:41;;;;;;;17.23;10.27;;;;;;;;;;5054091;28;20068;-86
2022/11/20 14:01:14;;;;;;;16.35;8.80;;;;;;;;;;5054016;28;20497;-86
2022/11/20 14:03:40;;;;;;;16.10;9.20;;;;;;;;;;5053941;28;20049;-86
2022/11/20 14:06:13;;;;;;;17.35;10.15;;;;;;;;;;5053371;28;20112;-85
2022/11/20 14:08:47;;;;;;;19.00;11.63;;;;;;;;;;5052821;28;20045;-86
2022/11/20 14:11:17;;;;;;;15.43;8.50;;;;;;;;;;5053154;28;20048;-86
2022/11/20 14:13:52;;;;;;;15.23;9.30;;;;;;;;;;5052775;28;20040;-86
2022/11/20 14:16:22;;;;;;;17.03;10.23;;;;;;;;;;5053137;28;20051;-86
2022/11/20 14:18:49;;;;;;;17.00;9.25;;;;;;;;;;5052380;28;20048;-86
2022/11/20 14:21:24;;;;;;;18.60;9.88;;;;;;;;;;5053172;28;20493;-87
2022/11/20 14:23:51;;;;;;;;;;;;;;;;;;5055488;28;20047;-86
2022/11/20 14:26:20;;;;;;;17.60;10.10;;;;;;;;;;5066820;28;20356;-86
2022/11/20 14:28:49;;;;;;;16.90;9.18;;;;;;;;;;5074104;28;20036;-86
2022/11/20 14:31:26;;;;;;;15.50;9.45;;;;;;;;;;5036050;28;20044;-86
2022/11/20 14:33:54;;;;;;;17.70;10.68;;;;;;;;;;5052430;28;20045;-86
2022/11/20 14:36:21;;;;;;;16.42;9.60;;;;;;;;;;5054046;28;20568;-79
2022/11/20 14:38:47;;;;;;;17.48;10.02;;;;;;;;;;5051324;28;20123;-78
2022/11/20 14:41:18;;;;;;;18.52;10.73;;;;;;;;;;5035419;28;20047;-77
2022/11/20 14:44:03;;;;;;;17.88;10.20;;;;;;;;;;5051162;28;20102;-77
2022/11/20 14:46:31;;;;;;;15.98;9.75;;;;;;;;;;5051852;28;20048;-77